Elk Plain, Washington
Current Conditions -  °F | °C
As of 4:58 AM on Sunday 23 Nov 2014 (Local Time) from KTCM Reporting Station
Overcast Overcast  
Wind Chill: 39°   Ceiling: 3600
Heat Index: 46°   Visibility: 10mi
Dew Point: 46°   Wind: 14mph
Humidity: 99%   Direction: 170°S
Pressure: 30.14"   Gusts: NA
Location:  47.06°N, 122.4°W
Report Text: KTCM 231258Z AUTO 17012KT 10SM SCT029 BKN036 OVC050 08/08 A3014 RMK AO2 RAB1209E1225 SLP212 P0001 T00760075 $
Loading
Personal Weather Stations






























Interactive Weather Map New forecast layout! Learn more

10-Day Weather Forecast

Advertisements
Track Severe Weather on mobile